Time;durP1;ratioP1;P1;durP2;ratioP2;P2;SDS_P1;SDS_P2;PMS_P1;PMS_P2;Temp;Humidity;BMP_temperature;BMP_pressure;BME280_temperature;BME280_humidity;BME280_pressure;Samples;Min_cycle;Max_cycle;Signal;HPM_P1;HPM_P2
2024/01/27 00:01:13;;;;;;;7.82;0.98;;;;;;;-141.50;100.00;63355.56;4978577;28;21233;-80
2024/01/27 00:03:40;;;;;;;5.75;0.80;;;;;;;-141.50;100.00;63355.56;4998759;28;20052;-80
2024/01/27 00:06:07;;;;;;;6.85;0.70;;;;;;;-141.50;100.00;63355.56;5022399;28;20053;-79
2024/01/27 00:08:33;;;;;;;8.30;0.80;;;;;;;-141.50;100.00;63355.56;4966394;28;20047;-80
2024/01/27 00:11:00;;;;;;;13.68;0.90;;;;;;;-141.50;100.00;63355.56;4998510;28;20445;-82
2024/01/27 00:13:30;;;;;;;10.18;0.98;;;;;;;-141.50;100.00;63355.56;4983888;28;20055;-78
2024/01/27 00:15:57;;;;;;;4.70;0.80;;;;;;;-141.50;100.00;63355.56;5059211;28;20057;-80
2024/01/27 00:18:23;;;;;;;2.15;0.55;;;;;;;-141.50;100.00;63355.56;5040850;28;20091;-79
2024/01/27 00:20:50;;;;;;;5.93;0.60;;;;;;;-141.50;100.00;63355.56;5044950;28;20053;-83
2024/01/27 00:23:17;;;;;;;3.15;0.75;;;;;;;-141.50;100.00;63355.56;5043185;28;20040;-80
2024/01/27 00:25:44;;;;;;;4.55;0.90;;;;;;;-141.50;100.00;63355.56;4996422;28;20444;-80
2024/01/27 00:28:10;;;;;;;6.47;0.80;;;;;;;-141.50;100.00;63355.56;5016441;28;20053;-82
2024/01/27 00:30:37;;;;;;;4.88;1.00;;;;;;;-141.50;100.00;63355.56;4971126;28;20167;-81
2024/01/27 00:33:04;;;;;;;6.13;0.70;;;;;;;-141.50;100.00;63355.56;4960167;28;20058;-80
2024/01/27 00:35:31;;;;;;;14.18;1.13;;;;;;;-141.50;100.00;63355.56;5016060;28;20286;-80
2024/01/27 00:37:58;;;;;;;5.45;0.70;;;;;;;-141.50;100.00;63355.56;5038980;28;20550;-80
2024/01/27 00:40:25;;;;;;;9.18;1.25;;;;;;;-141.50;100.00;63355.56;5003444;28;20566;-81
2024/01/27 00:42:51;;;;;;;6.03;1.00;;;;;;;-141.50;100.00;63355.56;4963834;28;20051;-79
2024/01/27 00:45:19;;;;;;;6.20;0.85;;;;;;;-141.50;100.00;63355.56;4967130;28;20059;-80
2024/01/27 00:47:46;;;;;;;3.60;0.68;;;;;;;-141.50;100.00;63355.56;5005427;28;20508;-81
2024/01/27 00:50:13;;;;;;;5.75;0.82;;;;;;;-141.50;100.00;63355.56;4999591;28;20280;-82
2024/01/27 00:52:40;;;;;;;5.93;0.90;;;;;;;-141.50;100.00;63355.56;4993467;28;20082;-80
2024/01/27 00:55:07;;;;;;;5.65;1.08;;;;;;;-141.50;100.00;63355.56;4965655;28;20058;-79
2024/01/27 00:57:33;;;;;;;8.73;0.88;;;;;;;-141.50;100.00;63355.56;4965702;28;20043;-80
2024/01/27 01:00:00;;;;;;;11.23;1.23;;;;;;;-141.50;100.00;63355.56;4964876;28;20563;-78
2024/01/27 01:02:28;;;;;;;6.00;1.13;;;;;;;-141.50;100.00;63355.56;5020896;28;20074;-80
2024/01/27 01:04:54;;;;;;;12.20;1.02;;;;;;;-141.50;100.00;63355.56;4966499;28;20123;-81
2024/01/27 01:07:21;;;;;;;4.28;0.77;;;;;;;-141.50;100.00;63355.56;4948828;28;20051;-82
2024/01/27 01:09:48;;;;;;;9.73;1.20;;;;;;;-141.50;100.00;63355.56;4976186;28;20055;-81
2024/01/27 01:12:15;;;;;;;4.45;1.08;;;;;;;-141.50;100.00;63355.56;4941247;28;20055;-80
2024/01/27 01:14:43;;;;;;;8.65;1.10;;;;;;;-141.50;100.00;63355.56;4991126;28;20067;-81
2024/01/27 01:17:13;;;;;;;10.43;1.27;;;;;;;-141.50;100.00;63355.56;4967479;28;20043;-81
2024/01/27 01:19:40;;;;;;;9.68;1.00;;;;;;;-141.50;100.00;63355.56;4971510;28;20109;-82
2024/01/27 01:22:07;;;;;;;6.72;1.00;;;;;;;-141.50;100.00;63355.56;4972535;28;20176;-79
2024/01/27 01:24:38;;;;;;;10.75;0.90;;;;;;;-141.50;100.00;63355.56;5033995;28;20057;-79
2024/01/27 01:27:05;;;;;;;11.30;1.08;;;;;;;-141.50;100.00;63355.56;5031072;28;20054;-78
2024/01/27 01:29:32;;;;;;;8.15;1.08;;;;;;;-141.50;100.00;63355.56;5033278;28;20066;-81
2024/01/27 01:32:01;;;;;;;8.60;1.15;;;;;;;-141.50;100.00;63355.56;4983910;28;20109;-81
2024/01/27 01:34:28;;;;;;;5.75;1.40;;;;;;;-141.50;100.00;63355.56;4960374;28;20077;-81
2024/01/27 01:36:57;;;;;;;10.82;1.05;;;;;;;-141.50;100.00;63355.56;5010307;28;20057;-80
2024/01/27 01:39:24;;;;;;;12.57;2.13;;;;;;;-141.50;100.00;63355.56;5002906;28;20429;-81
2024/01/27 01:41:50;;;;;;;4.32;1.17;;;;;;;-141.50;100.00;63355.56;4972196;28;20404;-80
2024/01/27 01:44:17;;;;;;;5.72;0.90;;;;;;;-141.50;100.00;63355.56;4958005;28;20055;-80
2024/01/27 01:46:45;;;;;;;9.13;1.30;;;;;;;-141.50;100.00;63355.56;5010169;28;20127;-84
2024/01/27 01:49:11;;;;;;;9.15;1.00;;;;;;;-141.50;100.00;63355.56;4966089;28;20054;-79
2024/01/27 01:51:39;;;;;;;8.07;1.30;;;;;;;-141.50;100.00;63355.56;4973473;28;20047;-80
2024/01/27 01:54:06;;;;;;;10.90;1.40;;;;;;;-141.50;100.00;63355.56;5004104;28;20045;-79
2024/01/27 01:56:33;;;;;;;5.97;1.10;;;;;;;-141.50;100.00;63355.56;4966360;28;20100;-82
2024/01/27 01:59:00;;;;;;;6.35;1.00;;;;;;;-141.50;100.00;63355.56;4961798;28;20157;-82
2024/01/27 02:01:28;;;;;;;11.50;1.40;;;;;;;-141.50;100.00;63355.56;4952571;28;20055;-81
2024/01/27 02:03:55;;;;;;;10.10;1.00;;;;;;;-141.50;100.00;63355.56;4969984;28;20058;-80
2024/01/27 02:06:22;;;;;;;6.90;1.10;;;;;;;-141.50;100.00;63355.56;4972606;28;20058;-80
2024/01/27 02:08:51;;;;;;;16.05;1.40;;;;;;;-141.50;100.00;63355.56;4979728;28;20047;-82
2024/01/27 02:11:17;;;;;;;11.40;1.40;;;;;;;-141.50;100.00;63355.56;4997366;28;20051;-79
2024/01/27 02:13:44;;;;;;;5.30;1.05;;;;;;;-141.50;100.00;63355.56;4997110;28;20070;-80
2024/01/27 02:16:11;;;;;;;10.85;1.05;;;;;;;-141.50;100.00;63355.56;4987667;28;20051;-80
2024/01/27 02:18:38;;;;;;;11.82;1.20;;;;;;;-141.50;100.00;63355.56;4969169;28;20050;-81
2024/01/27 02:21:05;;;;;;;8.68;1.23;;;;;;;-141.50;100.00;63355.56;4966075;28;20689;-81
2024/01/27 02:23:31;;;;;;;5.97;1.40;;;;;;;-141.50;100.00;63355.56;4957632;28;20043;-81
2024/01/27 02:25:58;;;;;;;13.75;1.30;;;;;;;-141.50;100.00;63355.56;4994344;28;20077;-80
2024/01/27 02:28:25;;;;;;;5.75;1.20;;;;;;;-141.50;100.00;63355.56;4962424;28;20085;-81
2024/01/27 02:30:52;;;;;;;7.50;1.17;;;;;;;-141.50;100.00;63355.56;5032322;28;20245;-80
2024/01/27 02:33:18;;;;;;;6.60;1.10;;;;;;;-141.50;100.00;63355.56;5004556;28;20043;-82
2024/01/27 02:35:45;;;;;;;12.80;1.23;;;;;;;-141.50;100.00;63355.56;5007560;28;20064;-81
2024/01/27 02:38:12;;;;;;;5.03;0.68;;;;;;;-141.50;100.00;63355.56;5031770;28;20063;-80
2024/01/27 02:40:39;;;;;;;9.13;0.98;;;;;;;-141.50;100.00;63355.56;5038289;28;20337;-79
2024/01/27 02:43:05;;;;;;;17.08;1.60;;;;;;;-141.50;100.00;63355.56;5004948;28;20055;-79
2024/01/27 02:45:32;;;;;;;16.00;1.23;;;;;;;-141.50;100.00;63355.56;5048465;28;20072;-80
2024/01/27 02:47:59;;;;;;;8.45;0.98;;;;;;;-141.50;100.00;63355.56;5047979;28;20117;-81
2024/01/27 02:50:26;;;;;;;11.35;1.02;;;;;;;-141.50;100.00;63355.56;5047487;28;20049;-79
2024/01/27 02:52:53;;;;;;;7.93;0.98;;;;;;;-141.50;100.00;63355.56;5042337;28;20080;-81
2024/01/27 02:55:20;;;;;;;11.30;1.35;;;;;;;-141.50;100.00;63355.56;5035825;28;20556;-80
2024/01/27 02:57:47;;;;;;;12.70;1.58;;;;;;;-141.50;100.00;63355.56;5041258;28;20065;-80
2024/01/27 03:00:15;;;;;;;7.88;1.08;;;;;;;-141.50;100.00;63355.56;5035783;28;20080;-82
2024/01/27 03:02:42;;;;;;;6.25;1.02;;;;;;;-141.50;100.00;63355.56;4966809;28;20036;-81
2024/01/27 03:05:08;;;;;;;7.70;1.10;;;;;;;-141.50;100.00;63355.56;4966854;28;20055;-81
2024/01/27 03:07:35;;;;;;;5.47;1.20;;;;;;;-141.50;100.00;63355.56;4971696;28;20117;-80
2024/01/27 03:10:02;;;;;;;10.32;0.93;;;;;;;-141.50;100.00;63355.56;4991219;28;20115;-81
2024/01/27 03:12:28;;;;;;;14.15;1.70;;;;;;;-141.50;100.00;63355.56;5011052;28;20050;-79
2024/01/27 03:14:55;;;;;;;11.35;1.27;;;;;;;-141.50;100.00;63355.56;4970738;28;20069;-79
2024/01/27 03:17:25;;;;;;;10.27;1.52;;;;;;;-141.50;100.00;63355.56;4979604;28;20055;-81
2024/01/27 03:19:51;;;;;;;10.48;1.40;;;;;;;-141.50;100.00;63355.56;4974973;28;20060;-80
2024/01/27 03:22:18;;;;;;;16.30;1.10;;;;;;;-141.50;100.00;63355.56;5008207;28;20146;-80
2024/01/27 03:24:45;;;;;;;5.70;1.33;;;;;;;-141.50;100.00;63355.56;4977161;28;20047;-80
2024/01/27 03:27:11;;;;;;;8.73;1.50;;;;;;;-141.50;100.00;63355.56;5017019;28;20058;-80
2024/01/27 03:29:38;;;;;;;15.13;1.45;;;;;;;-141.50;100.00;63355.56;4967489;28;20154;-83
2024/01/27 03:32:05;;;;;;;6.03;1.05;;;;;;;-141.50;100.00;63355.56;4963492;28;20067;-79
2024/01/27 03:34:32;;;;;;;14.90;1.33;;;;;;;-141.50;100.00;63355.56;4986424;28;20058;-79
2024/01/27 03:36:59;;;;;;;8.95;1.02;;;;;;;-141.50;100.00;63355.56;4959377;28;20055;-80
2024/01/27 03:39:25;;;;;;;11.55;1.15;;;;;;;-141.50;100.00;63355.56;5021286;28;20060;-80
2024/01/27 03:41:52;;;;;;;9.02;1.58;;;;;;;-141.50;100.00;63355.56;4962034;28;20055;-80
2024/01/27 03:44:19;;;;;;;8.23;1.10;;;;;;;-141.50;100.00;63355.56;4973248;28;20047;-79
2024/01/27 03:46:47;;;;;;;13.10;1.20;;;;;;;-141.50;100.00;63355.56;4969282;28;20038;-80
2024/01/27 03:49:14;;;;;;;15.77;1.30;;;;;;;-141.50;100.00;63355.56;4961361;28;20058;-82
2024/01/27 03:51:41;;;;;;;10.25;1.15;;;;;;;-141.50;100.00;63355.56;4970719;28;20265;-81
2024/01/27 03:54:08;;;;;;;14.23;1.00;;;;;;;-141.50;100.00;63355.56;5015184;28;20130;-79
2024/01/27 03:56:35;;;;;;;5.63;0.90;;;;;;;-141.50;100.00;63355.56;4983584;28;20053;-81
2024/01/27 03:59:03;;;;;;;13.85;1.35;;;;;;;-141.50;100.00;63355.56;4973630;28;20063;-80
2024/01/27 04:01:30;;;;;;;13.23;1.23;;;;;;;-141.50;100.00;63355.56;4964202;28;20472;-83
2024/01/27 04:03:57;;;;;;;12.70;1.30;;;;;;;-141.50;100.00;63355.56;5011085;28;20057;-81
2024/01/27 04:06:23;;;;;;;8.88;1.15;;;;;;;-141.50;100.00;63355.56;5034556;28;20047;-81
2024/01/27 04:08:50;;;;;;;12.63;1.20;;;;;;;-141.50;100.00;63355.56;5001420;28;20050;-82
2024/01/27 04:11:23;;;;;;;11.60;0.90;;;;;;;-141.50;100.00;63355.56;4995521;28;20059;-81
2024/01/27 04:13:50;;;;;;;10.00;1.20;;;;;;;-141.50;100.00;63355.56;4971730;28;20059;-81
2024/01/27 04:16:18;;;;;;;10.30;1.35;;;;;;;-141.50;100.00;63355.56;5011789;28;20042;-81
2024/01/27 04:18:44;;;;;;;8.30;0.98;;;;;;;-141.50;100.00;63355.56;4986251;28;20051;-79
2024/01/27 04:21:11;;;;;;;13.70;1.42;;;;;;;-141.50;100.00;63355.56;4979522;28;20120;-80
2024/01/27 04:23:38;;;;;;;6.20;0.70;;;;;;;-141.50;100.00;63355.56;4987183;28;20065;-79
2024/01/27 04:26:06;;;;;;;7.18;0.88;;;;;;;-141.50;100.00;63355.56;5007935;28;20083;-81
2024/01/27 04:28:33;;;;;;;6.93;0.88;;;;;;;-141.50;100.00;63355.56;4957699;28;20044;-79
2024/01/27 04:31:00;;;;;;;10.10;0.82;;;;;;;-141.50;100.00;63355.56;4946222;28;20086;-79
2024/01/27 04:33:26;;;;;;;8.50;1.25;;;;;;;-141.50;100.00;63355.56;4944878;28;20051;-79
2024/01/27 04:35:53;;;;;;;4.90;0.75;;;;;;;-141.50;100.00;63355.56;4941955;28;20085;-79
2024/01/27 04:38:23;;;;;;;8.88;1.52;;;;;;;-141.50;100.00;63355.56;4944048;28;20467;-80
2024/01/27 04:40:51;;;;;;;12.75;1.20;;;;;;;-141.50;100.00;63355.56;4946826;28;20094;-79
2024/01/27 04:43:20;;;;;;;6.75;1.27;;;;;;;-141.50;100.00;63355.56;4946064;28;20464;-79
2024/01/27 04:45:49;;;;;;;11.32;1.10;;;;;;;-141.50;100.00;63355.56;4947869;28;20411;-80
2024/01/27 04:48:16;;;;;;;14.20;2.20;;;;;;;-141.50;100.00;63355.56;4950774;28;20074;-79
2024/01/27 04:50:43;;;;;;;10.38;1.40;;;;;;;-141.50;100.00;63355.56;4946597;28;20048;-80
2024/01/27 04:53:10;;;;;;;10.00;1.13;;;;;;;-141.50;100.00;63355.56;4948268;28;20083;-79
2024/01/27 04:55:37;;;;;;;5.38;1.20;;;;;;;-141.50;100.00;63355.56;4946178;28;20047;-80
2024/01/27 04:58:06;;;;;;;7.85;1.42;;;;;;;-141.50;100.00;63355.56;4948282;28;20070;-80
2024/01/27 05:00:33;;;;;;;13.98;1.75;;;;;;;-141.50;100.00;63355.56;4986277;28;20047;-80
2024/01/27 05:03:04;;;;;;;12.90;1.33;;;;;;;-141.50;100.00;63355.56;4964235;28;20096;-80
2024/01/27 05:05:31;;;;;;;8.30;1.13;;;;;;;-141.50;100.00;63355.56;4975729;28;20039;-78
2024/01/27 05:08:01;;;;;;;11.77;1.40;;;;;;;-141.50;100.00;63355.56;4961363;28;20581;-78
2024/01/27 05:10:28;;;;;;;12.48;1.20;;;;;;;-141.50;100.00;63355.56;4974536;28;20043;-80
2024/01/27 05:12:56;;;;;;;14.95;1.10;;;;;;;-141.50;100.00;63355.56;4988607;28;20059;-80
2024/01/27 05:15:23;;;;;;;14.07;1.52;;;;;;;-141.50;100.00;63355.56;4987409;28;20049;-80
2024/01/27 05:17:49;;;;;;;7.18;0.82;;;;;;;-141.50;100.00;63355.56;4935502;28;20055;-79
2024/01/27 05:20:19;;;;;;;8.02;1.33;;;;;;;-141.50;100.00;63355.56;4986114;28;20053;-81
2024/01/27 05:22:46;;;;;;;10.43;1.48;;;;;;;-141.50;100.00;63355.56;4969342;28;20082;-81
2024/01/27 05:25:13;;;;;;;7.75;1.27;;;;;;;-141.50;100.00;63355.56;4968897;28;20055;-80
2024/01/27 05:27:40;;;;;;;11.48;1.55;;;;;;;-141.50;100.00;63355.56;4966352;28;20254;-80
2024/01/27 05:30:07;;;;;;;13.05;1.75;;;;;;;-141.50;100.00;63355.56;4982664;28;20581;-80
2024/01/27 05:32:34;;;;;;;10.65;1.15;;;;;;;-141.50;100.00;63355.56;5037608;28;20431;-81
2024/01/27 05:35:03;;;;;;;9.85;1.15;;;;;;;-141.50;100.00;63355.56;5009571;28;20164;-80
2024/01/27 05:37:29;;;;;;;10.93;1.38;;;;;;;-141.50;100.00;63355.56;4979678;28;20045;-78
2024/01/27 05:39:56;;;;;;;13.48;1.25;;;;;;;-141.50;100.00;63355.56;4996357;28;20475;-82
2024/01/27 05:42:23;;;;;;;9.23;0.90;;;;;;;-141.50;100.00;63355.56;4996133;28;20105;-80
2024/01/27 05:44:50;;;;;;;5.65;0.93;;;;;;;-141.50;100.00;63355.56;4974467;28;20134;-79
2024/01/27 05:47:16;;;;;;;8.60;1.02;;;;;;;-141.50;100.00;63355.56;4962095;28;20427;-80
2024/01/27 05:49:43;;;;;;;11.65;1.40;;;;;;;-141.50;100.00;63355.56;4968647;28;20077;-79
2024/01/27 05:52:10;;;;;;;9.40;1.40;;;;;;;-141.50;100.00;63355.56;5031418;28;20053;-80
2024/01/27 05:54:49;;;;;;;11.38;1.00;;;;;;;-141.50;100.00;63355.56;5000853;28;20074;-82
2024/01/27 05:57:16;;;;;;;10.57;1.02;;;;;;;-141.50;100.00;63355.56;5031345;28;20679;-82
2024/01/27 05:59:43;;;;;;;14.65;1.50;;;;;;;-141.50;100.00;63355.56;5033134;28;20057;-82
2024/01/27 06:02:09;;;;;;;11.75;1.10;;;;;;;-141.50;100.00;63355.56;5048584;28;20053;-82
2024/01/27 06:04:36;;;;;;;10.68;1.27;;;;;;;-141.50;100.00;63355.56;5013577;28;20043;-79
2024/01/27 06:07:03;;;;;;;12.18;1.27;;;;;;;-141.50;100.00;63355.56;4964978;28;20085;-80
2024/01/27 06:09:30;;;;;;;9.80;1.40;;;;;;;-141.50;100.00;63355.56;4965919;28;20051;-80
2024/01/27 06:12:00;;;;;;;12.82;1.15;;;;;;;-141.50;100.00;63355.56;5008874;28;20053;-82
2024/01/27 06:14:27;;;;;;;10.57;1.35;;;;;;;-141.50;100.00;63355.56;4993232;28;20733;-82
2024/01/27 06:16:54;;;;;;;16.10;1.95;;;;;;;-141.50;100.00;63355.56;5047609;28;20061;-82
2024/01/27 06:19:21;;;;;;;5.18;0.95;;;;;;;-141.50;100.00;63355.56;4987043;28;20051;-82
2024/01/27 06:21:48;;;;;;;5.88;0.90;;;;;;;-141.50;100.00;63355.56;4970644;28;20047;-82
2024/01/27 06:24:15;;;;;;;10.55;1.40;;;;;;;-141.50;100.00;63355.56;4981639;28;20145;-81
2024/01/27 06:26:41;;;;;;;9.10;1.73;;;;;;;-141.50;100.00;63355.56;4983348;28;20050;-82
2024/01/27 06:29:08;;;;;;;10.38;1.48;;;;;;;-141.50;100.00;63355.56;4986647;28;20055;-82
2024/01/27 06:31:35;;;;;;;9.90;1.15;;;;;;;-141.50;100.00;63355.56;4960832;28;20047;-81
2024/01/27 06:34:01;;;;;;;9.00;1.10;;;;;;;-141.50;100.00;63355.56;4965066;28;20050;-81
2024/01/27 06:36:28;;;;;;;6.65;0.82;;;;;;;-141.50;100.00;63355.56;4979055;28;20460;-82
2024/01/27 06:38:57;;;;;;;15.20;1.50;;;;;;;-141.50;100.00;63355.56;5008043;28;20063;-81
2024/01/27 06:41:24;;;;;;;5.25;1.02;;;;;;;-141.50;100.00;63355.56;4954594;28;20196;-82
2024/01/27 06:43:51;;;;;;;13.20;1.42;;;;;;;-141.50;100.00;63355.56;4958633;28;20159;-81
2024/01/27 06:46:17;;;;;;;9.82;1.27;;;;;;;-141.50;100.00;63355.56;5002125;28;20052;-82
2024/01/27 06:48:44;;;;;;;10.73;1.35;;;;;;;-141.50;100.00;63355.56;4962414;28;20055;-81
2024/01/27 06:51:11;;;;;;;14.93;1.90;;;;;;;-141.50;100.00;63355.56;4959896;28;20129;-80
2024/01/27 06:53:38;;;;;;;6.45;1.25;;;;;;;-141.50;100.00;63355.56;4960171;28;20043;-80
2024/01/27 06:56:05;;;;;;;7.63;1.20;;;;;;;-141.50;100.00;63355.56;4971657;28;20063;-81
2024/01/27 06:58:32;;;;;;;21.33;1.58;;;;;;;-141.50;100.00;63355.56;4984112;28;20613;-80
2024/01/27 07:00:59;;;;;;;10.63;1.30;;;;;;;-141.50;100.00;63355.56;4994233;28;20053;-81
2024/01/27 07:03:26;;;;;;;7.00;1.15;;;;;;;-141.50;100.00;63355.56;4978037;28;20053;-79
2024/01/27 07:05:54;;;;;;;12.15;1.40;;;;;;;-141.50;100.00;63355.56;4966005;28;20104;-81
2024/01/27 07:08:20;;;;;;;7.63;1.33;;;;;;;-141.50;100.00;63355.56;4999198;28;20561;-81
2024/01/27 07:10:47;;;;;;;8.90;1.52;;;;;;;-141.50;100.00;63355.56;4951165;28;20475;-82
2024/01/27 07:13:15;;;;;;;8.70;1.42;;;;;;;-141.50;100.00;63355.56;4968721;28;20058;-79
2024/01/27 07:15:41;;;;;;;8.68;1.55;;;;;;;-141.50;100.00;63355.56;4959272;28;20061;-80
2024/01/27 07:18:09;;;;;;;15.38;1.85;;;;;;;-141.50;100.00;63355.56;4958334;28;20401;-80
2024/01/27 07:20:37;;;;;;;16.23;2.05;;;;;;;-141.50;100.00;63355.56;4961282;28;20047;-80
2024/01/27 07:23:04;;;;;;;12.93;1.65;;;;;;;-141.50;100.00;63355.56;4956050;28;20054;-81
2024/01/27 07:25:31;;;;;;;14.48;1.45;;;;;;;-141.50;100.00;63355.56;4972762;28;20076;-80
2024/01/27 07:27:57;;;;;;;11.38;1.80;;;;;;;-141.50;100.00;63355.56;4970369;28;20046;-80
2024/01/27 07:30:24;;;;;;;14.02;1.83;;;;;;;-141.50;100.00;63355.56;4994816;28;20059;-79
2024/01/27 07:32:51;;;;;;;11.35;1.63;;;;;;;-141.50;100.00;63355.56;4959356;28;20079;-82
2024/01/27 07:35:18;;;;;;;26.83;2.22;;;;;;;-141.50;100.00;63355.56;5016063;28;20183;-81
2024/01/27 07:37:45;;;;;;;7.72;1.55;;;;;;;-141.50;100.00;63355.56;4951112;28;20456;-79
2024/01/27 07:40:12;;;;;;;19.00;1.63;;;;;;;-141.50;100.00;63355.56;5000195;28;20057;-79
2024/01/27 07:42:39;;;;;;;10.57;1.50;;;;;;;-141.50;100.00;63355.56;4953797;28;20064;-79
2024/01/27 07:45:06;;;;;;;9.52;1.67;;;;;;;-141.50;100.00;63355.56;4947178;28;20063;-80
2024/01/27 07:47:32;;;;;;;7.72;1.23;;;;;;;-141.50;100.00;63355.56;4971537;28;20079;-82
2024/01/27 07:50:00;;;;;;;15.57;1.58;;;;;;;-141.50;100.00;63355.56;4971108;28;20067;-82
2024/01/27 07:52:27;;;;;;;14.60;1.35;;;;;;;-141.50;100.00;63355.56;4953973;28;20122;-82
2024/01/27 07:54:54;;;;;;;6.88;1.60;;;;;;;-141.50;100.00;63355.56;4985136;28;20103;-79
2024/01/27 07:57:22;;;;;;;12.05;1.55;;;;;;;-141.50;100.00;63355.56;4990803;28;20053;-81
2024/01/27 07:59:49;;;;;;;10.77;1.42;;;;;;;-141.50;100.00;63355.56;4985961;28;20031;-81
2024/01/27 08:02:16;;;;;;;13.10;1.85;;;;;;;-141.50;100.00;63355.56;4961822;28;20046;-81
2024/01/27 08:04:43;;;;;;;16.55;1.75;;;;;;;-141.50;100.00;63355.56;4970059;28;20035;-80
2024/01/27 08:07:09;;;;;;;11.70;1.83;;;;;;;-141.50;100.00;63355.56;5005010;28;20222;-81
2024/01/27 08:09:38;;;;;;;20.65;2.03;;;;;;;-141.50;100.00;63355.56;4978141;28;20050;-80
2024/01/27 08:12:06;;;;;;;12.00;1.70;;;;;;;-141.50;100.00;63355.56;4973286;28;20063;-81
2024/01/27 08:14:35;;;;;;;17.83;1.60;;;;;;;-141.50;100.00;63355.56;4982992;28;20074;-81
2024/01/27 08:17:05;;;;;;;14.02;2.38;;;;;;;-141.50;100.00;63355.56;4984887;28;20059;-79
2024/01/27 08:19:32;;;;;;;24.63;2.45;;;;;;;-141.50;100.00;63355.56;4947671;28;20057;-80
2024/01/27 08:22:03;;;;;;;11.63;1.65;;;;;;;-141.50;100.00;63355.56;4951268;28;20710;-78
2024/01/27 08:24:29;;;;;;;10.15;1.42;;;;;;;-141.50;100.00;63355.56;4949873;28;20055;-80
2024/01/27 08:26:57;;;;;;;13.88;1.55;;;;;;;-141.50;100.00;63355.56;4949252;28;20051;-80
2024/01/27 08:29:24;;;;;;;8.88;1.38;;;;;;;-141.50;100.00;63355.56;4960979;28;20072;-80
2024/01/27 08:31:51;;;;;;;8.43;1.38;;;;;;;-141.50;100.00;63355.56;4989692;28;20045;-80
2024/01/27 08:34:18;;;;;;;9.50;1.77;;;;;;;-141.50;100.00;63355.56;4962419;28;20517;-80
2024/01/27 08:36:46;;;;;;;14.13;2.22;;;;;;;-141.50;100.00;63355.56;4951613;28;20054;-80
2024/01/27 08:39:13;;;;;;;15.02;1.98;;;;;;;-141.50;100.00;63355.56;4974313;28;20462;-81
2024/01/27 08:41:43;;;;;;;12.27;2.08;;;;;;;-141.50;100.00;63355.56;4967931;28;20063;-81
2024/01/27 08:44:10;;;;;;;15.48;1.88;;;;;;;-141.50;100.00;63355.56;5023406;28;20942;-80
2024/01/27 08:46:37;;;;;;;11.45;2.65;;;;;;;-141.50;100.00;63355.56;5038204;28;20706;-81
2024/01/27 08:49:03;;;;;;;17.90;4.05;;;;;;;-141.50;100.00;63355.56;4965848;28;20118;-81
2024/01/27 08:51:30;;;;;;;9.65;2.30;;;;;;;-141.50;100.00;63355.56;5016059;28;20046;-81
2024/01/27 08:53:57;;;;;;;23.42;2.60;;;;;;;-141.50;100.00;63355.56;4997416;28;20057;-80
2024/01/27 08:56:24;;;;;;;19.58;1.80;;;;;;;-141.50;100.00;63355.56;4969031;28;20055;-79
2024/01/27 08:58:52;;;;;;;14.65;2.20;;;;;;;-141.50;100.00;63355.56;4974010;28;20066;-81
2024/01/27 09:01:19;;;;;;;10.82;2.25;;;;;;;-141.50;100.00;63355.56;5027270;28;20142;-80
2024/01/27 09:03:46;;;;;;;16.10;2.00;;;;;;;-141.50;100.00;63355.56;4962666;28;20082;-78
2024/01/27 09:06:13;;;;;;;11.60;1.85;;;;;;;-141.50;100.00;63355.56;4989744;28;20105;-81
2024/01/27 09:08:42;;;;;;;13.05;2.00;;;;;;;-141.50;100.00;63355.56;4965966;28;20058;-80
2024/01/27 09:11:09;;;;;;;11.02;2.38;;;;;;;-141.50;100.00;63355.56;4966851;28;20054;-83
2024/01/27 09:13:36;;;;;;;12.57;1.85;;;;;;;-141.50;100.00;63355.56;4938264;28;20705;-79
2024/01/27 09:16:03;;;;;;;12.82;2.05;;;;;;;-141.50;100.00;63355.56;4964399;28;20477;-81
2024/01/27 09:18:29;;;;;;;13.88;1.75;;;;;;;-141.50;100.00;63355.56;4952519;28;20115;-79
2024/01/27 09:20:56;;;;;;;11.50;2.38;;;;;;;-141.50;100.00;63355.56;4955093;28;20512;-81
2024/01/27 09:23:23;;;;;;;17.63;2.63;;;;;;;-141.50;100.00;63355.56;4960591;28;20063;-81
2024/01/27 09:25:50;;;;;;;8.93;2.28;;;;;;;-141.50;100.00;63355.56;5024568;28;20603;-80
2024/01/27 09:28:16;;;;;;;18.05;2.55;;;;;;;-141.50;100.00;63355.56;4972399;28;20058;-80
2024/01/27 09:30:43;;;;;;;21.20;2.70;;;;;;;-141.50;100.00;63355.56;4956659;28;20092;-80
2024/01/27 09:33:10;;;;;;;13.15;2.05;;;;;;;-141.50;100.00;63355.56;4961780;28;20056;-80
2024/01/27 09:35:37;;;;;;;10.38;1.80;;;;;;;-141.50;100.00;63355.56;4983089;28;20117;-81
2024/01/27 09:38:05;;;;;;;15.90;2.15;;;;;;;-141.50;100.00;63355.56;4992280;28;20050;-81
2024/01/27 09:40:32;;;;;;;20.30;2.28;;;;;;;-141.50;100.00;63355.56;4951737;28;20078;-81
2024/01/27 09:43:00;;;;;;;17.38;2.50;;;;;;;-141.50;100.00;63355.56;5041518;28;20110;-80
2024/01/27 09:45:27;;;;;;;9.52;2.20;;;;;;;-141.50;100.00;63355.56;4957132;28;20130;-80
2024/01/27 09:47:59;;;;;;;15.95;2.50;;;;;;;-141.50;100.00;63355.56;4950942;28;20169;-80
2024/01/27 09:50:27;;;;;;;18.23;2.40;;;;;;;-141.50;100.00;63355.56;4946059;28;20054;-80
2024/01/27 09:52:54;;;;;;;13.15;2.05;;;;;;;-141.50;100.00;63355.56;4961083;28;20089;-80
2024/01/27 09:55:21;;;;;;;15.15;2.38;;;;;;;-141.50;100.00;63355.56;5006467;28;20043;-81
2024/01/27 09:57:48;;;;;;;10.13;1.83;;;;;;;-141.50;100.00;63355.56;4994939;28;20167;-78
2024/01/27 10:00:18;;;;;;;11.35;2.13;;;;;;;-141.50;100.00;63355.56;5001063;28;20708;-80
2024/01/27 10:02:46;;;;;;;22.92;2.22;;;;;;;-141.50;100.00;63355.56;4982185;28;20058;-80
2024/01/27 10:05:14;;;;;;;9.93;1.70;;;;;;;-141.50;100.00;63355.56;4958331;28;20070;-81
2024/01/27 10:07:42;;;;;;;12.40;1.83;;;;;;;-141.50;100.00;63355.56;4993213;28;20045;-81
2024/01/27 10:10:09;;;;;;;12.13;1.80;;;;;;;-141.50;100.00;63355.56;4972017;28;20100;-81
2024/01/27 10:12:42;;;;;;;10.75;1.90;;;;;;;-141.50;100.00;63355.56;4967927;28;20075;-81
2024/01/27 10:15:21;;;;;;;12.43;2.10;;;;;;;-141.50;100.00;63355.56;5029831;28;20055;-80
2024/01/27 10:17:49;;;;;;;14.05;2.40;;;;;;;-141.50;100.00;63355.56;4996578;28;20385;-80
2024/01/27 10:20:18;;;;;;;14.25;2.00;;;;;;;-141.50;100.00;63355.56;4947621;28;20156;-82
2024/01/27 10:22:46;;;;;;;7.68;1.90;;;;;;;-141.50;100.00;63355.56;4957764;28;20115;-81
2024/01/27 10:25:13;;;;;;;13.38;1.90;;;;;;;-141.50;100.00;63355.56;4965454;28;20350;-81
2024/01/27 10:27:45;;;;;;;13.57;1.90;;;;;;;-141.50;100.00;63355.56;4993599;28;20095;-80
2024/01/27 10:30:17;;;;;;;13.80;2.17;;;;;;;-141.50;100.00;63355.56;5008336;28;20065;-80
2024/01/27 10:32:55;;;;;;;11.73;2.38;;;;;;;-141.50;100.00;63355.56;4975837;28;20477;-80
2024/01/27 10:35:22;;;;;;;16.70;2.40;;;;;;;-141.50;100.00;63355.56;4970802;28;20057;-81
2024/01/27 10:37:53;;;;;;;18.85;2.50;;;;;;;-141.50;100.00;63355.56;4958138;28;20047;-81
2024/01/27 10:40:25;;;;;;;14.43;2.10;;;;;;;-141.50;100.00;63355.56;4956005;28;20858;-80
2024/01/27 10:43:12;;;;;;;12.98;1.90;;;;;;;-141.50;100.00;63355.56;4959123;28;20355;-80
2024/01/27 10:45:41;;;;;;;18.08;2.42;;;;;;;-141.50;100.00;63355.56;5007142;28;20065;-79
2024/01/27 10:48:12;;;;;;;15.65;2.08;;;;;;;-141.50;100.00;63355.56;4964533;28;1130216;-79
2024/01/27 10:50:40;;;;;;;11.38;1.80;;;;;;;-141.50;100.00;63355.56;4998398;28;20111;-79
2024/01/27 10:53:24;;;;;;;10.85;1.73;;;;;;;-141.50;100.00;63355.56;5049894;28;20113;-81
2024/01/27 10:55:58;;;;;;;11.02;2.05;;;;;;;-141.50;100.00;63355.56;4955946;28;20083;-80
2024/01/27 10:58:26;;;;;;;19.50;2.10;;;;;;;-141.50;100.00;63355.56;4995333;28;20066;-79
2024/01/27 11:00:55;;;;;;;16.80;2.33;;;;;;;-141.50;100.00;63355.56;4960313;28;20074;-81
2024/01/27 11:03:23;;;;;;;12.48;2.05;;;;;;;-141.50;100.00;63355.56;4955085;28;20108;-81
2024/01/27 11:05:53;;;;;;;13.68;1.92;;;;;;;-141.50;100.00;63355.56;4960638;28;20490;-81